Time;durP1;ratioP1;P1;durP2;ratioP2;P2;SDS_P1;SDS_P2;PMS_P1;PMS_P2;Temp;Humidity;BMP_temperature;BMP_pressure;BME280_temperature;BME280_humidity;BME280_pressure;Samples;Min_cycle;Max_cycle;Signal;HPM_P1;HPM_P2
2020/12/22 00:01:30;;;;;;;102.20;65.70;;;9.20;91.20;;;;;;5015781;28;20030;-77
2020/12/22 00:03:56;;;;;;;101.47;67.83;;;9.20;91.20;;;;;;5015402;28;20026;-77
2020/12/22 00:06:23;;;;;;;105.50;69.47;;;9.20;91.30;;;;;;5015216;28;20036;-77
2020/12/22 00:08:49;;;;;;;100.70;66.37;;;9.20;91.40;;;;;;5015515;28;20026;-77
2020/12/22 00:11:15;;;;;;;111.57;71.83;;;9.10;91.40;;;;;;5015431;28;20026;-78
2020/12/22 00:13:41;;;;;;;111.90;71.83;;;9.20;91.40;;;;;;5013393;28;20026;-77
2020/12/22 00:16:07;;;;;;;105.67;71.13;;;9.10;91.30;;;;;;5012404;28;20041;-78
2020/12/22 00:18:32;;;;;;;112.33;72.63;;;9.10;91.40;;;;;;5013078;28;20410;-76
2020/12/22 00:20:58;;;;;;;116.97;73.93;;;9.10;91.40;;;;;;5015237;28;20061;-77
2020/12/22 00:23:24;;;;;;;127.37;79.50;;;9.10;91.40;;;;;;5015401;28;20474;-77
2020/12/22 00:25:50;;;;;;;123.83;79.80;;;9.00;91.50;;;;;;5015240;28;20026;-77
2020/12/22 00:28:16;;;;;;;128.73;80.63;;;9.00;91.60;;;;;;5014912;28;20029;-79
2020/12/22 00:30:43;;;;;;;130.37;79.53;;;9.00;91.80;;;;;;5015129;28;20474;-78
2020/12/22 00:33:10;;;;;;;125.23;78.00;;;9.00;91.80;;;;;;5014954;28;20021;-78
2020/12/22 00:35:35;;;;;;;129.67;81.60;;;9.00;91.70;;;;;;5014855;28;20080;-78
2020/12/22 00:38:01;;;;;;;121.43;80.20;;;9.10;91.70;;;;;;5014621;28;20026;-78
2020/12/22 00:40:28;;;;;;;131.63;81.47;;;9.10;91.80;;;;;;5014817;28;20072;-78
2020/12/22 00:42:54;;;;;;;132.40;80.47;;;9.10;91.80;;;;;;5014807;28;20025;-78
2020/12/22 00:45:20;;;;;;;134.13;81.60;;;9.10;91.80;;;;;;5014585;28;20132;-78
2020/12/22 00:47:46;;;;;;;129.60;80.47;;;9.10;91.80;;;;;;5014561;28;20026;-79
2020/12/22 00:50:12;;;;;;;125.23;76.47;;;9.10;91.80;;;;;;5012185;28;20033;-78
2020/12/22 00:52:38;;;;;;;115.85;75.85;;;9.10;91.80;;;;;;5011866;28;20040;-78
2020/12/22 00:55:04;;;;;;;126.23;76.63;;;9.20;91.70;;;;;;5013162;28;20445;-78
2020/12/22 00:57:30;;;;;;;125.00;79.03;;;9.20;91.60;;;;;;5014513;28;20068;-79
2020/12/22 00:59:56;;;;;;;117.63;73.93;;;9.20;91.60;;;;;;5014433;28;20057;-79
2020/12/22 01:02:21;;;;;;;115.90;77.60;;;9.20;91.60;;;;;;5014131;28;20029;-78
2020/12/22 01:04:49;;;;;;;117.93;75.17;;;9.20;91.60;;;;;;5014540;28;20022;-78
2020/12/22 01:07:15;;;;;;;123.07;74.87;;;9.20;91.60;;;;;;5014200;28;20110;-78
2020/12/22 01:09:41;;;;;;;120.97;76.50;;;9.30;91.60;;;;;;5014751;28;20037;-78
2020/12/22 01:12:07;;;;;;;126.60;78.13;;;9.20;91.60;;;;;;5014439;28;20033;-79
2020/12/22 01:14:32;;;;;;;128.60;79.38;;;9.30;91.50;;;;;;5014159;28;20022;-80
2020/12/22 01:16:58;;;;;;;128.77;78.47;;;9.30;91.50;;;;;;5014153;28;20378;-79
2020/12/22 01:19:24;;;;;;;127.20;80.10;;;9.30;91.60;;;;;;5014206;28;20064;-77
2020/12/22 01:21:53;;;;;;;127.70;77.97;;;9.30;91.50;;;;;;5014368;28;20033;-78
2020/12/22 01:24:19;;;;;;;119.97;74.53;;;9.20;91.50;;;;;;5014471;28;20030;-78
2020/12/22 01:26:45;;;;;;;125.90;79.23;;;9.30;91.60;;;;;;5013862;28;20026;-78
2020/12/22 01:29:11;;;;;;;126.17;77.87;;;9.30;91.50;;;;;;5012721;28;20075;-79
2020/12/22 01:31:37;;;;;;;128.00;79.47;;;9.30;91.50;;;;;;5014093;28;20360;-78
2020/12/22 01:34:02;;;;;;;124.83;78.47;;;9.30;91.40;;;;;;5013836;28;20478;-79
2020/12/22 01:36:31;;;;;;;132.83;78.27;;;9.30;91.30;;;;;;5013103;28;20050;-78
2020/12/22 01:38:57;;;;;;;140.47;81.47;;;9.20;91.30;;;;;;5014018;28;20037;-79
2020/12/22 01:41:23;;;;;;;125.27;77.53;;;9.20;91.40;;;;;;5013899;28;20489;-78
2020/12/22 01:44:09;;;;;;;126.33;75.63;;;9.20;91.60;;;;;;5012634;28;20033;-78
2020/12/22 01:46:40;;;;;;;134.00;78.00;;;9.20;91.70;;;;;;5013625;28;20025;-78
2020/12/22 01:49:24;;;;;;;137.83;77.50;;;9.20;91.70;;;;;;5013864;28;20113;-78
2020/12/22 01:51:55;;;;;;;125.90;79.13;;;9.20;91.70;;;;;;5013648;28;20049;-77
2020/12/22 01:54:22;;;;;;;128.60;79.87;;;9.30;91.70;;;;;;5013539;28;20033;-79
2020/12/22 01:56:48;;;;;;;131.03;80.37;;;9.30;91.60;;;;;;5013474;28;20057;-78
2020/12/22 01:59:14;;;;;;;122.97;80.13;;;9.30;91.60;;;;;;5010804;28;20038;-79
2020/12/22 02:01:40;;;;;;;138.20;83.50;;;9.30;91.60;;;;;;5010710;28;20443;-79
2020/12/22 02:04:09;;;;;;;139.67;84.17;;;9.30;91.60;;;;;;5011115;28;20057;-78
2020/12/22 02:06:35;;;;;;;132.93;82.53;;;9.30;91.60;;;;;;5012829;28;20497;-78
2020/12/22 02:09:04;;;;;;;139.03;81.00;;;9.30;91.60;;;;;;5013078;28;20030;-77
2020/12/22 02:11:31;;;;;;;137.63;81.40;;;9.30;91.50;;;;;;5013070;28;20544;-79
2020/12/22 02:13:58;;;;;;;130.10;78.80;;;9.30;91.50;;;;;;5013180;28;20114;-78
2020/12/22 02:16:25;;;;;;;135.73;82.50;;;9.30;91.60;;;;;;5013467;28;20025;-77
2020/12/22 02:18:51;;;;;;;135.77;82.57;;;9.20;91.60;;;;;;5013204;28;20066;-78
2020/12/22 02:21:17;;;;;;;140.87;83.40;;;9.30;91.60;;;;;;5013058;28;20084;-76
2020/12/22 02:23:52;;;;;;;137.20;81.83;;;9.30;91.60;;;;;;5013290;28;20509;-78
2020/12/22 02:26:21;;;;;;;144.43;83.67;;;9.20;91.60;;;;;;5013228;28;20088;-77
2020/12/22 02:28:48;;;;;;;131.17;78.10;;;9.20;91.60;;;;;;5012907;28;20503;-78
2020/12/22 02:31:14;;;;;;;142.20;82.20;;;9.20;91.60;;;;;;5013274;28;20040;-77
2020/12/22 02:33:40;;;;;;;132.53;77.67;;;9.30;91.60;;;;;;5013231;28;20022;-78
2020/12/22 02:36:13;;;;;;;139.60;80.67;;;9.20;91.60;;;;;;5012846;28;20050;-77
2020/12/22 02:38:40;;;;;;;134.93;78.03;;;9.20;91.60;;;;;;5012982;28;20042;-77
2020/12/22 02:41:06;;;;;;;129.97;79.80;;;9.30;91.50;;;;;;5013341;28;20026;-77
2020/12/22 02:43:32;;;;;;;143.77;82.37;;;9.30;91.50;;;;;;5012864;28;20449;-78
2020/12/22 02:45:58;;;;;;;146.67;82.43;;;9.20;91.40;;;;;;5012816;28;20033;-78
2020/12/22 02:48:24;;;;;;;143.53;81.23;;;9.20;91.40;;;;;;5013479;28;20113;-79
2020/12/22 02:50:49;;;;;;;152.83;82.90;;;9.20;91.40;;;;;;5016660;28;20029;-78
2020/12/22 02:53:15;;;;;;;159.43;83.97;;;9.20;91.40;;;;;;5016673;28;20040;-78
2020/12/22 02:55:41;;;;;;;168.37;87.00;;;9.20;91.80;;;;;;5016496;28;20466;-78
2020/12/22 02:58:07;;;;;;;171.87;86.17;;;9.20;91.50;;;;;;5016294;28;20120;-78
2020/12/22 03:00:32;;;;;;;184.93;87.83;;;9.20;91.60;;;;;;5016377;28;20489;-78
2020/12/22 03:02:58;;;;;;;173.47;82.67;;;9.20;91.70;;;;;;5016635;28;20022;-77
2020/12/22 03:05:24;;;;;;;175.63;85.13;;;9.20;91.70;;;;;;5016665;28;20041;-78
2020/12/22 03:07:49;;;;;;;174.60;84.83;;;9.20;91.80;;;;;;5016563;28;20104;-78
2020/12/22 03:10:17;;;;;;;176.17;83.87;;;9.20;91.80;;;;;;5016542;28;20076;-79
2020/12/22 03:12:44;;;;;;;173.67;84.23;;;9.20;91.80;;;;;;5016617;28;20030;-78
2020/12/22 03:15:10;;;;;;;177.63;84.40;;;9.20;91.90;;;;;;5016271;28;20022;-78
2020/12/22 03:17:37;;;;;;;175.40;84.07;;;9.10;91.80;;;;;;5016500;28;20018;-77
2020/12/22 03:20:08;;;;;;;177.80;85.00;;;9.10;91.70;;;;;;5016474;28;20021;-77
2020/12/22 03:22:37;;;;;;;172.90;84.77;;;9.10;91.80;;;;;;5016230;28;20522;-78
2020/12/22 03:25:07;;;;;;;170.67;82.87;;;9.10;91.90;;;;;;5016078;28;20382;-78
2020/12/22 03:27:33;;;;;;;155.90;81.20;;;9.10;92.00;;;;;;5016188;28;20026;-78
2020/12/22 03:29:59;;;;;;;155.40;78.97;;;9.10;91.90;;;;;;5016344;28;20071;-78
2020/12/22 03:32:25;;;;;;;157.03;81.60;;;9.10;92.00;;;;;;5016155;28;20037;-78
2020/12/22 03:34:51;;;;;;;167.23;84.33;;;9.10;92.00;;;;;;5016215;28;20406;-78
2020/12/22 03:37:22;;;;;;;166.40;83.27;;;9.10;92.00;;;;;;5015569;28;20042;-78
2020/12/22 03:39:53;;;;;;;158.17;81.23;;;9.10;91.90;;;;;;5014783;28;20029;-78
2020/12/22 03:42:19;;;;;;;159.17;80.60;;;9.10;92.00;;;;;;5016054;28;20033;-78
2020/12/22 03:44:46;;;;;;;161.60;81.33;;;9.10;91.90;;;;;;5016040;28;20026;-77
2020/12/22 03:47:13;;;;;;;158.10;82.53;;;9.10;91.90;;;;;;5015871;28;20026;-77
2020/12/22 03:49:39;;;;;;;150.80;80.83;;;9.10;91.90;;;;;;5015879;28;20064;-77
2020/12/22 03:52:05;;;;;;;158.30;83.87;;;9.10;91.90;;;;;;5015946;28;20432;-78
2020/12/22 03:54:32;;;;;;;163.50;86.93;;;9.20;91.90;;;;;;5015831;28;20030;-78
2020/12/22 03:56:58;;;;;;;161.97;82.43;;;9.20;92.00;;;;;;5015344;28;20399;-78
2020/12/22 03:59:23;;;;;;;151.90;83.07;;;9.20;92.00;;;;;;5015216;28;20029;-78
2020/12/22 04:01:52;;;;;;;162.77;86.50;;;9.20;92.00;;;;;;5015663;28;20036;-78
2020/12/22 04:04:22;;;;;;;158.00;83.13;;;9.20;91.80;;;;;;5015652;28;20040;-77
2020/12/22 04:06:49;;;;;;;157.13;82.60;;;9.20;91.80;;;;;;5015330;28;20095;-78
2020/12/22 04:09:16;;;;;;;156.00;83.73;;;9.20;91.80;;;;;;5015327;28;20080;-78
2020/12/22 04:11:41;;;;;;;171.73;88.07;;;9.20;91.80;;;;;;5015552;28;20026;-78
2020/12/22 04:14:11;;;;;;;175.55;87.15;;;9.20;91.90;;;;;;5015330;28;20033;-78
2020/12/22 04:16:37;;;;;;;160.63;84.13;;;9.20;92.00;;;;;;5015071;28;20055;-78
2020/12/22 04:19:04;;;;;;;172.70;91.13;;;9.20;91.80;;;;;;5015304;28;20049;-77
2020/12/22 04:21:30;;;;;;;163.27;86.57;;;9.20;91.80;;;;;;5015231;28;20026;-78
2020/12/22 04:23:57;;;;;;;171.03;88.67;;;9.20;91.80;;;;;;5015110;28;20030;-78
2020/12/22 04:26:23;;;;;;;175.87;92.10;;;9.10;91.70;;;;;;5015283;28;20030;-78
2020/12/22 04:28:48;;;;;;;174.67;89.83;;;9.10;91.70;;;;;;5014976;28;20389;-78
2020/12/22 04:31:14;;;;;;;182.87;90.97;;;9.10;91.80;;;;;;5014033;28;20241;-78
2020/12/22 04:33:40;;;;;;;176.60;92.30;;;9.00;91.80;;;;;;5015254;28;20030;-77
2020/12/22 04:36:06;;;;;;;179.60;91.37;;;9.00;91.90;;;;;;5014820;28;20104;-77
2020/12/22 04:38:32;;;;;;;176.40;89.53;;;9.00;91.90;;;;;;5014427;28;20429;-77
2020/12/22 04:41:02;;;;;;;171.13;87.27;;;9.00;92.10;;;;;;5015152;28;20026;-78
2020/12/22 04:43:30;;;;;;;180.70;88.73;;;9.00;92.10;;;;;;5014949;28;20069;-76
2020/12/22 04:46:02;;;;;;;182.93;87.80;;;9.00;92.00;;;;;;5014688;28;20030;-78
2020/12/22 04:48:32;;;;;;;;;;;9.00;92.00;;;;;;5015148;28;20018;-78
2020/12/22 04:51:00;;;;;;;167.47;85.33;;;9.00;92.00;;;;;;5014657;28;19927;-78
2020/12/22 04:53:30;;;;;;;164.37;86.30;;;9.00;92.10;;;;;;5014569;28;20510;-78
2020/12/22 04:55:56;;;;;;;157.73;80.97;;;9.00;92.20;;;;;;5014461;28;20034;-77
2020/12/22 04:58:22;;;;;;;163.10;82.67;;;9.00;92.20;;;;;;5014710;28;20048;-77
2020/12/22 05:00:50;;;;;;;168.37;82.17;;;9.00;92.20;;;;;;5014559;28;20525;-78
2020/12/22 05:03:18;;;;;;;149.60;78.27;;;9.00;92.20;;;;;;5014335;28;20026;-78
2020/12/22 05:05:44;;;;;;;154.83;80.67;;;9.10;92.20;;;;;;5014418;28;20054;-79
2020/12/22 05:08:09;;;;;;;150.23;78.47;;;9.10;92.10;;;;;;5014428;28;20080;-77
2020/12/22 05:10:35;;;;;;;162.17;79.80;;;9.10;92.10;;;;;;5014228;28;20026;-78
2020/12/22 05:13:02;;;;;;;163.40;79.60;;;9.10;92.10;;;;;;5013835;28;20075;-77
2020/12/22 05:15:28;;;;;;;149.57;75.87;;;9.10;92.10;;;;;;5014105;28;20085;-76
2020/12/22 05:17:58;;;;;;;146.83;75.30;;;9.10;92.40;;;;;;5014273;28;20433;-76
2020/12/22 05:20:24;;;;;;;152.13;76.67;;;9.10;92.10;;;;;;5014297;28;20057;-77
2020/12/22 05:22:53;;;;;;;168.20;76.10;;;9.10;92.10;;;;;;5014092;28;20064;-78
2020/12/22 05:25:20;;;;;;;142.93;74.50;;;9.10;92.10;;;;;;5013969;28;20030;-78
2020/12/22 05:27:48;;;;;;;142.03;76.87;;;9.20;92.00;;;;;;5014113;28;20051;-78
2020/12/22 05:30:18;;;;;;;159.67;77.67;;;9.10;91.90;;;;;;5014071;28;20029;-78
2020/12/22 05:32:48;;;;;;;146.27;76.13;;;9.10;92.00;;;;;;5013892;28;20025;-78
2020/12/22 05:35:13;;;;;;;162.73;80.90;;;9.10;92.00;;;;;;5014066;28;20100;-78
2020/12/22 05:37:46;;;;;;;161.47;78.97;;;9.10;92.00;;;;;;5013704;28;20125;-78
2020/12/22 05:40:12;;;;;;;154.10;74.63;;;9.10;92.10;;;;;;5013877;28;20022;-78
2020/12/22 05:42:38;;;;;;;141.43;72.90;;;9.10;92.10;;;;;;5013807;28;20029;-79
2020/12/22 05:45:06;;;;;;;147.90;72.13;;;9.20;92.00;;;;;;5013804;28;20021;-79
2020/12/22 05:47:32;;;;;;;137.43;71.47;;;9.20;92.00;;;;;;5014318;28;20386;-79
2020/12/22 05:49:59;;;;;;;151.53;75.53;;;9.10;92.10;;;;;;5013644;28;20033;-79
2020/12/22 05:52:26;;;;;;;148.47;73.97;;;9.10;92.10;;;;;;5013850;28;20544;-79
2020/12/22 05:54:53;;;;;;;151.47;76.33;;;9.20;92.10;;;;;;5012449;28;20100;-78
2020/12/22 05:57:21;;;;;;;140.87;72.83;;;9.20;92.10;;;;;;5013757;28;20123;-79
2020/12/22 05:59:47;;;;;;;146.63;71.50;;;9.20;92.10;;;;;;5013567;28;20026;-78
2020/12/22 06:02:27;;;;;;;124.83;69.13;;;9.20;92.10;;;;;;5012169;28;20109;-78
2020/12/22 06:05:01;;;;;;;137.07;70.97;;;9.20;92.10;;;;;;5013881;28;20352;-80
2020/12/22 06:07:27;;;;;;;142.67;74.07;;;9.20;92.00;;;;;;5013441;28;20018;-79
2020/12/22 06:09:54;;;;;;;135.53;70.57;;;9.20;92.00;;;;;;5013643;28;20030;-79
2020/12/22 06:12:21;;;;;;;152.47;76.10;;;9.20;92.00;;;;;;5013204;28;20491;-79
2020/12/22 06:14:52;;;;;;;130.97;68.77;;;9.20;92.00;;;;;;5013362;28;20018;-78
2020/12/22 06:17:19;;;;;;;131.83;69.03;;;9.20;92.00;;;;;;5012980;28;20025;-78
2020/12/22 06:19:46;;;;;;;126.70;68.07;;;9.20;91.90;;;;;;5013997;28;20025;-78
2020/12/22 06:22:16;;;;;;;126.83;69.40;;;9.20;92.00;;;;;;5013272;28;20113;-78
2020/12/22 06:24:43;;;;;;;125.68;67.13;;;9.20;92.00;;;;;;5017495;28;20072;-79
2020/12/22 06:27:13;;;;;;;123.80;67.57;;;9.20;91.80;;;;;;5017270;28;20105;-78
2020/12/22 06:29:43;;;;;;;129.37;67.50;;;9.30;91.80;;;;;;5017068;28;20040;-78
2020/12/22 06:32:24;;;;;;;130.17;66.27;;;9.20;91.70;;;;;;5017256;28;20079;-79
2020/12/22 06:34:51;;;;;;;132.50;66.93;;;9.20;91.70;;;;;;5020060;28;20033;-78
2020/12/22 06:37:21;;;;;;;137.90;66.07;;;9.20;91.70;;;;;;5016820;28;20054;-78
2020/12/22 06:39:49;;;;;;;127.17;67.03;;;9.20;91.70;;;;;;5017417;28;20116;-78
2020/12/22 06:42:30;;;;;;;138.13;69.43;;;9.20;91.70;;;;;;5017175;28;20030;-78
2020/12/22 06:45:25;;;;;;;142.37;67.67;;;9.20;91.80;;;;;;5017041;28;20030;-78
2020/12/22 06:47:52;;;;;;;136.33;66.43;;;9.20;91.80;;;;;;5017049;28;20029;-78
2020/12/22 06:50:40;;;;;;;124.67;64.53;;;9.20;92.00;;;;;;5017328;28;20088;-78
2020/12/22 06:53:06;;;;;;;141.77;65.43;;;9.20;92.00;;;;;;5016738;28;20025;-76
2020/12/22 06:55:51;;;;;;;132.73;66.73;;;9.20;92.00;;;;;;5016779;28;20022;-76
2020/12/22 06:58:40;;;;;;;122.63;64.57;;;9.20;92.00;;;;;;5016787;28;20034;-76
2020/12/22 07:01:24;;;;;;;126.00;65.17;;;9.30;91.90;;;;;;5017090;28;20034;-76
2020/12/22 07:03:53;;;;;;;122.93;63.03;;;9.30;91.80;;;;;;5016877;28;20018;-76
2020/12/22 07:06:47;;;;;;;129.17;64.67;;;9.30;91.70;;;;;;5016450;28;20100;-76
2020/12/22 07:09:21;;;;;;;146.60;69.40;;;9.30;91.70;;;;;;5015290;28;20469;-74
2020/12/22 07:11:47;;;;;;;139.97;70.37;;;9.30;91.60;;;;;;5013734;28;20032;-71
2020/12/22 07:14:24;;;;;;;153.07;75.57;;;9.30;91.60;;;;;;5013740;28;20030;-73
2020/12/22 07:17:10;;;;;;;161.97;75.83;;;9.30;91.60;;;;;;5015555;28;20036;-72
2020/12/22 07:19:35;;;;;;;150.10;74.30;;;9.20;91.50;;;;;;5016468;28;20029;-74
2020/12/22 07:22:03;;;;;;;155.83;75.90;;;9.20;91.60;;;;;;5016232;28;20030;-77
2020/12/22 07:24:31;;;;;;;164.27;77.07;;;9.30;91.50;;;;;;5014180;28;20036;-75
2020/12/22 07:26:57;;;;;;;166.13;80.00;;;9.30;91.50;;;;;;5014233;28;20026;-74
2020/12/22 07:29:23;;;;;;;168.53;80.93;;;9.20;91.50;;;;;;5014931;28;20030;-75
2020/12/22 07:31:49;;;;;;;168.33;80.00;;;9.20;91.50;;;;;;5014943;28;20114;-75
2020/12/22 07:34:16;;;;;;;181.27;84.77;;;9.20;91.60;;;;;;5010426;28;20117;-76
2020/12/22 07:36:42;;;;;;;167.30;79.60;;;9.20;91.70;;;;;;5013003;28;20086;-77
2020/12/22 07:39:23;;;;;;;176.80;80.57;;;9.20;91.80;;;;;;5030592;28;20112;-77
2020/12/22 07:41:51;;;;;;;171.57;80.03;;;9.20;91.90;;;;;;5035170;28;20112;-76
2020/12/22 07:44:21;;;;;;;170.83;77.47;;;9.20;91.90;;;;;;5035486;28;20045;-77
2020/12/22 07:46:49;;;;;;;163.33;76.73;;;9.20;91.90;;;;;;5027050;28;20032;-77
2020/12/22 07:49:15;;;;;;;167.57;75.90;;;9.20;91.90;;;;;;5027382;28;20030;-78
2020/12/22 07:51:46;;;;;;;146.97;70.67;;;9.20;92.00;;;;;;5035120;28;20029;-74
2020/12/22 07:54:13;;;;;;;147.23;70.27;;;9.20;92.00;;;;;;5034996;28;20079;-75
2020/12/22 07:56:40;;;;;;;139.57;70.07;;;9.30;91.90;;;;;;5034780;28;20030;-76
2020/12/22 07:59:11;;;;;;;150.17;73.03;;;9.30;91.80;;;;;;5034928;28;20038;-78
2020/12/22 08:01:42;;;;;;;161.13;73.97;;;9.30;91.70;;;;;;5034910;28;20071;-77
2020/12/22 08:04:18;;;;;;;160.57;73.30;;;9.20;91.80;;;;;;5034884;28;20394;-76
2020/12/22 08:06:57;;;;;;;168.87;79.23;;;9.20;91.80;;;;;;5034850;28;20044;-76
2020/12/22 08:09:34;;;;;;;169.63;77.83;;;9.30;91.80;;;;;;5035404;28;20025;-76
2020/12/22 08:12:10;;;;;;;173.63;80.00;;;9.30;91.90;;;;;;5035393;28;20378;-75
2020/12/22 08:14:39;;;;;;;175.60;78.57;;;9.20;91.90;;;;;;5035422;28;20023;-73
2020/12/22 08:17:14;;;;;;;160.27;75.87;;;9.30;92.00;;;;;;5035309;28;20028;-75
2020/12/22 08:19:41;;;;;;;165.10;73.60;;;9.30;91.90;;;;;;5035178;28;20072;-74
2020/12/22 08:22:07;;;;;;;164.60;74.23;;;9.20;91.90;;;;;;5035082;28;20017;-73
2020/12/22 08:24:37;;;;;;;156.67;70.87;;;9.20;91.90;;;;;;5034984;28;20032;-73
2020/12/22 08:27:05;;;;;;;154.93;70.40;;;9.20;92.00;;;;;;5033086;28;20113;-75
2020/12/22 08:29:31;;;;;;;159.83;71.17;;;9.30;92.10;;;;;;5032056;28;20065;-76
2020/12/22 08:32:02;;;;;;;165.97;71.60;;;9.30;91.90;;;;;;5032695;28;20022;-77
2020/12/22 08:34:29;;;;;;;162.83;70.33;;;9.30;92.00;;;;;;5034743;28;20148;-75
2020/12/22 08:36:55;;;;;;;163.90;72.43;;;9.20;91.90;;;;;;5034432;28;20095;-76
2020/12/22 08:39:28;;;;;;;166.97;74.10;;;9.30;92.00;;;;;;5031436;28;20037;-75
2020/12/22 08:41:54;;;;;;;;;;;9.30;92.10;;;;;;5032743;28;20389;-75
2020/12/22 08:44:22;;;;;;;167.03;72.90;;;9.30;92.10;;;;;;5034304;28;20047;-75
2020/12/22 08:46:48;;;;;;;162.67;73.57;;;9.30;92.00;;;;;;5034424;28;20075;-74
2020/12/22 08:49:17;;;;;;;162.53;72.10;;;9.30;92.30;;;;;;5034605;28;20100;-74
2020/12/22 08:51:45;;;;;;;162.97;73.50;;;9.30;92.00;;;;;;5034447;28;20021;-76
2020/12/22 08:54:11;;;;;;;162.37;74.20;;;9.30;92.00;;;;;;5034472;28;20048;-74
2020/12/22 08:56:37;;;;;;;177.20;73.43;;;9.30;92.00;;;;;;5034158;28;20092;-75
2020/12/22 08:59:05;;;;;;;162.53;70.47;;;9.30;91.90;;;;;;5034047;28;20033;-75
2020/12/22 09:01:45;;;;;;;162.43;71.50;;;9.30;92.00;;;;;;5034328;28;20017;-74
2020/12/22 09:04:12;;;;;;;151.07;68.20;;;9.30;92.10;;;;;;5034060;28;20049;-75
2020/12/22 09:06:48;;;;;;;157.70;70.07;;;9.30;92.10;;;;;;5034437;28;20025;-75
2020/12/22 09:09:27;;;;;;;143.13;66.83;;;9.30;92.10;;;;;;5034194;28;20022;-74
2020/12/22 09:12:03;;;;;;;152.73;69.27;;;9.30;92.00;;;;;;5034123;28;20017;-75
2020/12/22 09:14:41;;;;;;;147.30;67.57;;;9.40;92.00;;;;;;5034125;28;20042;-75
2020/12/22 09:17:07;;;;;;;141.70;66.23;;;9.40;92.00;;;;;;5034059;28;20549;-74
2020/12/22 09:19:52;;;;;;;138.30;64.70;;;9.40;91.90;;;;;;5034030;28;20041;-75
2020/12/22 09:22:24;;;;;;;136.47;64.17;;;9.40;91.90;;;;;;5033860;28;20033;-75
2020/12/22 09:24:55;;;;;;;133.00;64.20;;;9.50;91.80;;;;;;5034006;28;20169;-75
2020/12/22 09:27:32;;;;;;;138.43;65.67;;;9.50;91.80;;;;;;5033897;28;20022;-76
2020/12/22 09:29:59;;;;;;;130.40;61.40;;;9.50;91.80;;;;;;5033796;28;20025;-75
2020/12/22 09:32:26;;;;;;;122.90;60.57;;;9.50;91.80;;;;;;5033605;28;20462;-75
2020/12/22 09:34:52;;;;;;;129.00;61.13;;;9.50;91.80;;;;;;5033782;28;20099;-75
2020/12/22 09:37:22;;;;;;;121.50;60.27;;;9.50;91.70;;;;;;5033492;28;20107;-75
2020/12/22 09:39:50;;;;;;;120.00;59.23;;;9.50;91.80;;;;;;5033790;28;20026;-75
2020/12/22 09:42:17;;;;;;;121.88;59.92;;;9.60;91.70;;;;;;5033743;28;20028;-75
2020/12/22 09:44:43;;;;;;;126.33;60.90;;;9.60;91.70;;;;;;5033498;28;20381;-74
2020/12/22 09:47:09;;;;;;;147.07;64.53;;;9.60;91.70;;;;;;5033511;28;20025;-74
2020/12/22 09:49:35;;;;;;;132.07;61.70;;;9.60;91.70;;;;;;5033671;28;20155;-74
2020/12/22 09:52:02;;;;;;;123.33;60.17;;;9.50;91.70;;;;;;5033520;28;20048;-75
2020/12/22 09:54:28;;;;;;;134.97;61.40;;;9.60;91.80;;;;;;5033507;28;20024;-74
2020/12/22 09:56:57;;;;;;;132.90;60.80;;;9.60;91.80;;;;;;5033289;28;20100;-75
2020/12/22 09:59:23;;;;;;;127.80;60.57;;;9.60;91.80;;;;;;5032867;28;20061;-76
2020/12/22 10:01:55;;;;;;;130.57;58.23;;;9.60;91.80;;;;;;5033286;28;20056;-75
2020/12/22 10:04:21;;;;;;;126.43;59.13;;;9.60;91.80;;;;;;5031763;28;20113;-73
2020/12/22 10:06:49;;;;;;;124.03;61.00;;;9.60;91.70;;;;;;5032415;28;20097;-75
2020/12/22 10:09:15;;;;;;;128.90;64.97;;;9.60;91.70;;;;;;5032764;28;20539;-75
2020/12/22 10:11:41;;;;;;;121.00;58.00;;;9.60;91.70;;;;;;5013287;28;20040;-75
2020/12/22 10:14:07;;;;;;;124.73;56.83;;;9.60;91.70;;;;;;5012959;28;20423;-75
2020/12/22 10:16:33;;;;;;;114.63;55.10;;;9.60;91.70;;;;;;5012886;28;20109;-74
2020/12/22 10:19:00;;;;;;;117.77;56.47;;;9.60;91.80;;;;;;5013603;28;20105;-75
2020/12/22 10:21:26;;;;;;;99.65;51.92;;;9.60;91.80;;;;;;5032561;28;20021;-75
2020/12/22 10:23:59;;;;;;;102.55;53.40;;;9.60;91.80;;;;;;5032407;28;20033;-75
2020/12/22 10:26:26;;;;;;;111.95;52.20;;;9.70;91.80;;;;;;5032338;28;20073;-75
2020/12/22 10:28:52;;;;;;;98.43;51.63;;;9.70;91.60;;;;;;5032659;28;20030;-75
2020/12/22 10:31:20;;;;;;;115.13;56.13;;;9.70;91.50;;;;;;5032638;28;20052;-75
2020/12/22 10:33:47;;;;;;;107.67;55.07;;;9.70;91.50;;;;;;5032566;28;20033;-75
2020/12/22 10:36:17;;;;;;;111.47;54.80;;;9.70;91.40;;;;;;5032082;28;20394;-75
2020/12/22 10:38:43;;;;;;;110.23;54.93;;;9.70;91.40;;;;;;5032401;28;20501;-76
2020/12/22 10:41:10;;;;;;;113.50;54.05;;;9.70;91.50;;;;;;5032309;28;20033;-75
2020/12/22 10:43:36;;;;;;;120.35;54.55;;;9.80;91.40;;;;;;5032401;28;20038;-76
2020/12/22 10:46:02;;;;;;;115.47;55.63;;;9.80;91.70;;;;;;5032407;28;20025;-75
2020/12/22 10:48:29;;;;;;;109.80;53.57;;;9.80;91.50;;;;;;5032263;28;20529;-75
2020/12/22 10:50:55;;;;;;;112.90;55.72;;;9.70;91.70;;;;;;5032436;28;20157;-75
2020/12/22 10:53:21;;;;;;;104.05;52.13;;;9.80;91.50;;;;;;5032392;28;20064;-75
2020/12/22 10:55:47;;;;;;;105.18;52.60;;;9.70;91.50;;;;;;5032230;28;20120;-76
2020/12/22 10:58:13;;;;;;;103.65;51.00;;;9.70;91.50;;;;;;5031234;28;20224;-75
2020/12/22 11:00:39;;;;;;;103.65;51.47;;;9.70;91.50;;;;;;5029583;28;20033;-75
2020/12/22 11:03:10;;;;;;;98.55;50.28;;;9.70;91.50;;;;;;5030263;28;20050;-76
2020/12/22 11:08:22;;;;;;;101.47;49.20;;;9.70;91.60;;;;;;5032804;28;20048;-76
2020/12/22 11:10:49;;;;;;;95.55;47.85;;;9.70;91.70;;;;;;5035236;28;20023;-76
2020/12/22 11:13:16;;;;;;;98.88;47.97;;;9.70;91.70;;;;;;5036709;28;20445;-75
2020/12/22 11:15:44;;;;;;;105.07;49.20;;;9.70;91.70;;;;;;5036384;28;20057;-76
2020/12/22 11:18:10;;;;;;;88.60;44.83;;;9.70;91.70;;;;;;5036285;28;20034;-75
2020/12/22 11:20:36;;;;;;;92.60;45.73;;;9.70;91.70;;;;;;5036160;28;20072;-75
2020/12/22 11:23:03;;;;;;;95.45;48.67;;;9.70;91.60;;;;;;5036760;28;20034;-75
2020/12/22 11:25:29;;;;;;;97.57;49.70;;;9.70;91.80;;;;;;5036288;28;20394;-75
2020/12/22 11:27:55;;;;;;;100.47;47.83;;;9.70;91.60;;;;;;5036529;28;20084;-75
2020/12/22 11:30:20;;;;;;;95.00;47.37;;;9.70;91.60;;;;;;5036120;28;20473;-74
2020/12/22 11:32:46;;;;;;;95.77;47.73;;;9.70;91.70;;;;;;5036078;28;20021;-73
2020/12/22 11:35:12;;;;;;;88.57;45.50;;;9.70;91.70;;;;;;5034620;28;20032;-73
2020/12/22 11:37:38;;;;;;;92.07;45.58;;;9.70;91.80;;;;;;5035625;28;20050;-74
2020/12/22 11:40:05;;;;;;;87.70;45.78;;;9.70;91.80;;;;;;5035689;28;20123;-73
2020/12/22 11:42:32;;;;;;;86.55;44.53;;;9.70;91.70;;;;;;5035599;28;20018;-73
2020/12/22 11:44:57;;;;;;;82.88;43.08;;;9.70;91.70;;;;;;5035783;28;20029;-75
2020/12/22 11:47:23;;;;;;;90.05;47.00;;;9.70;91.60;;;;;;5035778;28;20028;-75
2020/12/22 11:49:49;;;;;;;91.95;46.33;;;9.70;91.60;;;;;;5035148;28;20049;-73
2020/12/22 11:52:16;;;;;;;93.17;46.63;;;9.80;91.60;;;;;;5034124;28;20025;-72
2020/12/22 11:54:42;;;;;;;86.38;43.65;;;9.70;91.60;;;;;;5031957;28;20051;-72
2020/12/22 11:57:07;;;;;;;87.70;46.10;;;9.80;91.60;;;;;;5032599;28;20478;-78
2020/12/22 11:59:33;;;;;;;87.95;45.13;;;9.80;91.70;;;;;;5033366;28;20079;-75
2020/12/22 12:02:05;;;;;;;89.95;45.78;;;9.80;91.30;;;;;;5035032;28;20021;-74
2020/12/22 12:04:31;;;;;;;103.07;47.93;;;9.80;91.40;;;;;;5032223;28;20385;-78
2020/12/22 12:06:57;;;;;;;99.77;47.57;;;9.80;91.50;;;;;;5035130;28;20032;-77
2020/12/22 12:09:23;;;;;;;102.45;48.30;;;9.80;91.40;;;;;;5035197;28;20030;-75
2020/12/22 12:11:49;;;;;;;104.22;48.33;;;9.80;91.40;;;;;;5035101;28;20025;-74
2020/12/22 12:14:15;;;;;;;94.97;46.27;;;9.80;91.40;;;;;;5035190;28;20080;-75
2020/12/22 12:16:44;;;;;;;106.70;49.30;;;9.80;91.50;;;;;;5034910;28;20029;-75
2020/12/22 12:19:10;;;;;;;104.97;48.37;;;9.80;91.40;;;;;;5035027;28;20044;-75
2020/12/22 12:21:35;;;;;;;100.00;47.83;;;9.80;91.50;;;;;;5034736;28;20029;-75
2020/12/22 12:24:02;;;;;;;92.20;45.95;;;9.80;91.50;;;;;;5035200;28;20022;-75
2020/12/22 12:26:28;;;;;;;101.90;47.35;;;9.80;91.50;;;;;;5034866;28;20466;-75
2020/12/22 12:28:53;;;;;;;90.75;45.22;;;9.80;91.50;;;;;;5034914;28;20139;-74
2020/12/22 12:31:21;;;;;;;96.78;46.15;;;9.80;91.40;;;;;;5033447;28;20109;-75
2020/12/22 12:33:47;;;;;;;102.50;47.90;;;9.80;91.30;;;;;;5034969;28;20030;-74
2020/12/22 12:36:14;;;;;;;91.00;45.33;;;9.90;91.80;;;;;;5034577;28;20049;-75